sensor_id;sensor_type;location;lat;lon;timestamp;P1;durP1;ratioP1;P2;durP2;ratioP2
16133;SDS011;8172;45.018;5.972;2023-02-01T00:04:30;20.70;;;11.67;;
16133;SDS011;8172;45.018;5.972;2023-02-01T00:09:37;21.87;;;10.73;;
16133;SDS011;8172;45.018;5.972;2023-02-01T00:14:44;19.60;;;11.30;;
16133;SDS011;8172;45.018;5.972;2023-02-01T00:19:53;22.83;;;12.60;;
16133;SDS011;8172;45.018;5.972;2023-02-01T00:25:00;23.53;;;13.27;;
16133;SDS011;8172;45.018;5.972;2023-02-01T00:30:09;27.07;;;14.17;;
16133;SDS011;8172;45.018;5.972;2023-02-01T00:35:16;25.57;;;13.57;;
16133;SDS011;8172;45.018;5.972;2023-02-01T00:40:24;27.87;;;14.13;;
16133;SDS011;8172;45.018;5.972;2023-02-01T00:45:31;27.30;;;13.83;;
16133;SDS011;8172;45.018;5.972;2023-02-01T00:55:48;23.90;;;13.37;;
16133;SDS011;8172;45.018;5.972;2023-02-01T01:06:06;26.13;;;13.03;;
16133;SDS011;8172;45.018;5.972;2023-02-01T01:11:16;28.20;;;14.47;;
16133;SDS011;8172;45.018;5.972;2023-02-01T01:16:25;25.13;;;14.07;;
16133;SDS011;8172;45.018;5.972;2023-02-01T01:21:34;25.80;;;12.77;;
16133;SDS011;8172;45.018;5.972;2023-02-01T01:26:41;26.90;;;13.57;;
16133;SDS011;8172;45.018;5.972;2023-02-01T01:31:48;22.10;;;13.00;;
16133;SDS011;8172;45.018;5.972;2023-02-01T01:36:55;24.77;;;13.60;;
16133;SDS011;8172;45.018;5.972;2023-02-01T01:42:02;24.73;;;13.27;;
16133;SDS011;8172;45.018;5.972;2023-02-01T01:47:09;26.93;;;12.97;;
16133;SDS011;8172;45.018;5.972;2023-02-01T01:52:17;24.90;;;13.60;;
16133;SDS011;8172;45.018;5.972;2023-02-01T02:02:34;25.83;;;13.83;;
16133;SDS011;8172;45.018;5.972;2023-02-01T02:07:46;26.63;;;13.73;;
16133;SDS011;8172;45.018;5.972;2023-02-01T02:12:55;28.33;;;14.63;;
16133;SDS011;8172;45.018;5.972;2023-02-01T02:18:05;29.13;;;14.60;;
16133;SDS011;8172;45.018;5.972;2023-02-01T02:43:48;24.50;;;13.00;;
16133;SDS011;8172;45.018;5.972;2023-02-01T02:54:09;25.23;;;13.73;;
16133;SDS011;8172;45.018;5.972;2023-02-01T02:59:20;26.73;;;13.47;;
16133;SDS011;8172;45.018;5.972;2023-02-01T03:04:31;26.63;;;14.67;;
16133;SDS011;8172;45.018;5.972;2023-02-01T03:09:39;32.40;;;14.47;;
16133;SDS011;8172;45.018;5.972;2023-02-01T03:14:48;28.13;;;14.23;;
16133;SDS011;8172;45.018;5.972;2023-02-01T03:19:58;29.13;;;14.83;;
16133;SDS011;8172;45.018;5.972;2023-02-01T03:25:10;25.10;;;13.17;;
16133;SDS011;8172;45.018;5.972;2023-02-01T03:40:36;22.60;;;12.07;;
16133;SDS011;8172;45.018;5.972;2023-02-01T03:45:47;23.27;;;12.77;;
16133;SDS011;8172;45.018;5.972;2023-02-01T03:50:56;26.80;;;13.47;;
16133;SDS011;8172;45.018;5.972;2023-02-01T03:56:06;22.07;;;12.13;;
16133;SDS011;8172;45.018;5.972;2023-02-01T04:01:14;22.70;;;12.60;;
16133;SDS011;8172;45.018;5.972;2023-02-01T04:06:21;21.17;;;12.33;;
16133;SDS011;8172;45.018;5.972;2023-02-01T04:11:30;19.80;;;11.67;;
16133;SDS011;8172;45.018;5.972;2023-02-01T04:16:37;23.37;;;13.23;;
16133;SDS011;8172;45.018;5.972;2023-02-01T04:21:44;22.80;;;13.03;;
16133;SDS011;8172;45.018;5.972;2023-02-01T04:26:51;25.90;;;13.57;;
16133;SDS011;8172;45.018;5.972;2023-02-01T04:31:58;26.83;;;13.80;;
16133;SDS011;8172;45.018;5.972;2023-02-01T04:37:05;24.40;;;13.17;;
16133;SDS011;8172;45.018;5.972;2023-02-01T04:42:12;26.30;;;13.40;;
16133;SDS011;8172;45.018;5.972;2023-02-01T04:47:20;24.33;;;13.77;;
16133;SDS011;8172;45.018;5.972;2023-02-01T04:52:27;24.57;;;13.80;;
16133;SDS011;8172;45.018;5.972;2023-02-01T04:57:35;22.73;;;13.03;;
16133;SDS011;8172;45.018;5.972;2023-02-01T05:02:43;22.43;;;12.23;;
16133;SDS011;8172;45.018;5.972;2023-02-01T05:07:50;25.27;;;14.10;;
16133;SDS011;8172;45.018;5.972;2023-02-01T05:12:57;25.43;;;13.57;;
16133;SDS011;8172;45.018;5.972;2023-02-01T05:18:06;23.50;;;13.07;;
16133;SDS011;8172;45.018;5.972;2023-02-01T05:23:13;24.60;;;13.70;;
16133;SDS011;8172;45.018;5.972;2023-02-01T05:28:20;26.30;;;13.70;;
16133;SDS011;8172;45.018;5.972;2023-02-01T05:33:27;24.67;;;13.17;;
16133;SDS011;8172;45.018;5.972;2023-02-01T05:38:34;23.53;;;13.43;;
16133;SDS011;8172;45.018;5.972;2023-02-01T05:43:42;22.87;;;13.53;;
16133;SDS011;8172;45.018;5.972;2023-02-01T05:48:49;25.50;;;14.07;;
16133;SDS011;8172;45.018;5.972;2023-02-01T05:53:56;23.63;;;13.30;;
16133;SDS011;8172;45.018;5.972;2023-02-01T05:59:03;24.13;;;13.37;;
16133;SDS011;8172;45.018;5.972;2023-02-01T06:04:09;26.63;;;13.57;;
16133;SDS011;8172;45.018;5.972;2023-02-01T06:09:17;23.90;;;13.70;;
16133;SDS011;8172;45.018;5.972;2023-02-01T06:14:24;21.03;;;12.97;;
16133;SDS011;8172;45.018;5.972;2023-02-01T06:19:31;24.57;;;13.70;;
16133;SDS011;8172;45.018;5.972;2023-02-01T06:24:38;22.90;;;13.17;;
16133;SDS011;8172;45.018;5.972;2023-02-01T06:29:45;24.43;;;13.43;;
16133;SDS011;8172;45.018;5.972;2023-02-01T06:34:52;25.63;;;13.27;;
16133;SDS011;8172;45.018;5.972;2023-02-01T06:40:00;24.27;;;13.23;;
16133;SDS011;8172;45.018;5.972;2023-02-01T06:45:07;21.70;;;12.13;;
16133;SDS011;8172;45.018;5.972;2023-02-01T06:50:15;23.80;;;12.90;;
16133;SDS011;8172;45.018;5.972;2023-02-01T06:55:22;21.27;;;12.60;;
16133;SDS011;8172;45.018;5.972;2023-02-01T07:00:29;20.30;;;12.20;;
16133;SDS011;8172;45.018;5.972;2023-02-01T07:05:36;23.47;;;13.63;;
16133;SDS011;8172;45.018;5.972;2023-02-01T07:10:43;25.33;;;13.60;;
16133;SDS011;8172;45.018;5.972;2023-02-01T07:15:50;24.53;;;13.80;;
16133;SDS011;8172;45.018;5.972;2023-02-01T07:20:57;24.13;;;13.97;;
16133;SDS011;8172;45.018;5.972;2023-02-01T07:26:06;22.63;;;13.43;;
16133;SDS011;8172;45.018;5.972;2023-02-01T07:31:16;26.87;;;15.03;;
16133;SDS011;8172;45.018;5.972;2023-02-01T07:36:26;24.83;;;13.77;;
16133;SDS011;8172;45.018;5.972;2023-02-01T07:41:33;25.27;;;13.70;;
16133;SDS011;8172;45.018;5.972;2023-02-01T07:46:40;25.73;;;14.17;;
16133;SDS011;8172;45.018;5.972;2023-02-01T07:51:49;24.20;;;13.57;;
16133;SDS011;8172;45.018;5.972;2023-02-01T07:56:57;24.53;;;13.47;;
16133;SDS011;8172;45.018;5.972;2023-02-01T08:02:03;22.37;;;12.73;;
16133;SDS011;8172;45.018;5.972;2023-02-01T08:07:10;23.13;;;13.47;;
16133;SDS011;8172;45.018;5.972;2023-02-01T08:12:18;25.37;;;13.53;;
16133;SDS011;8172;45.018;5.972;2023-02-01T08:17:25;20.80;;;12.20;;
16133;SDS011;8172;45.018;5.972;2023-02-01T08:22:33;26.87;;;13.60;;
16133;SDS011;8172;45.018;5.972;2023-02-01T08:27:42;25.77;;;12.57;;
16133;SDS011;8172;45.018;5.972;2023-02-01T08:32:49;22.10;;;12.23;;
16133;SDS011;8172;45.018;5.972;2023-02-01T08:37:56;19.90;;;11.87;;
16133;SDS011;8172;45.018;5.972;2023-02-01T08:43:03;23.57;;;13.23;;
16133;SDS011;8172;45.018;5.972;2023-02-01T08:48:10;22.43;;;12.70;;
16133;SDS011;8172;45.018;5.972;2023-02-01T08:53:17;21.40;;;12.70;;
16133;SDS011;8172;45.018;5.972;2023-02-01T08:58:24;20.73;;;11.27;;
16133;SDS011;8172;45.018;5.972;2023-02-01T09:03:30;21.80;;;12.73;;
16133;SDS011;8172;45.018;5.972;2023-02-01T09:08:39;26.00;;;12.37;;
16133;SDS011;8172;45.018;5.972;2023-02-01T09:13:47;19.70;;;11.97;;
16133;SDS011;8172;45.018;5.972;2023-02-01T09:18:54;19.50;;;11.27;;
16133;SDS011;8172;45.018;5.972;2023-02-01T09:24:03;19.67;;;11.90;;
16133;SDS011;8172;45.018;5.972;2023-02-01T09:29:12;21.87;;;12.07;;
16133;SDS011;8172;45.018;5.972;2023-02-01T09:34:19;21.93;;;12.80;;
16133;SDS011;8172;45.018;5.972;2023-02-01T09:39:27;25.40;;;12.80;;
16133;SDS011;8172;45.018;5.972;2023-02-01T09:54:54;21.33;;;11.67;;
16133;SDS011;8172;45.018;5.972;2023-02-01T10:00:14;16.23;;;10.43;;
16133;SDS011;8172;45.018;5.972;2023-02-01T10:05:16;17.13;;;10.47;;
16133;SDS011;8172;45.018;5.972;2023-02-01T10:15:38;17.67;;;10.93;;
16133;SDS011;8172;45.018;5.972;2023-02-01T10:25:53;16.87;;;9.90;;
16133;SDS011;8172;45.018;5.972;2023-02-01T10:31:03;18.33;;;11.10;;
16133;SDS011;8172;45.018;5.972;2023-02-01T10:41:20;18.63;;;10.80;;
16133;SDS011;8172;45.018;5.972;2023-02-01T10:46:29;17.47;;;10.30;;
16133;SDS011;8172;45.018;5.972;2023-02-01T10:56:46;16.03;;;9.63;;
16133;SDS011;8172;45.018;5.972;2023-02-01T11:07:05;16.50;;;10.30;;
16133;SDS011;8172;45.018;5.972;2023-02-01T11:17:25;13.73;;;8.83;;
16133;SDS011;8172;45.018;5.972;2023-02-01T11:22:33;13.63;;;8.37;;
16133;SDS011;8172;45.018;5.972;2023-02-01T11:27:41;14.47;;;8.67;;
16133;SDS011;8172;45.018;5.972;2023-02-01T11:32:50;13.00;;;8.10;;
16133;SDS011;8172;45.018;5.972;2023-02-01T11:37:58;12.73;;;8.53;;
16133;SDS011;8172;45.018;5.972;2023-02-01T11:48:17;13.63;;;8.53;;
16133;SDS011;8172;45.018;5.972;2023-02-01T12:14:10;12.27;;;7.37;;
16133;SDS011;8172;45.018;5.972;2023-02-01T12:19:22;12.30;;;7.60;;
16133;SDS011;8172;45.018;5.972;2023-02-01T12:45:03;11.80;;;7.73;;
16133;SDS011;8172;45.018;5.972;2023-02-01T13:00:32;10.97;;;7.07;;
16133;SDS011;8172;45.018;5.972;2023-02-01T13:05:44;11.73;;;7.70;;
16133;SDS011;8172;45.018;5.972;2023-02-01T13:16:05;9.37;;;6.80;;
16133;SDS011;8172;45.018;5.972;2023-02-01T13:21:14;10.80;;;7.40;;
16133;SDS011;8172;45.018;5.972;2023-02-01T13:26:20;11.13;;;7.60;;
16133;SDS011;8172;45.018;5.972;2023-02-01T13:31:29;9.77;;;6.67;;
16133;SDS011;8172;45.018;5.972;2023-02-01T13:41:51;9.93;;;6.40;;
16133;SDS011;8172;45.018;5.972;2023-02-01T13:46:58;9.97;;;6.63;;
16133;SDS011;8172;45.018;5.972;2023-02-01T13:52:16;11.60;;;7.03;;
16133;SDS011;8172;45.018;5.972;2023-02-01T14:08:02;14.47;;;7.53;;
16133;SDS011;8172;45.018;5.972;2023-02-01T14:12:48;11.47;;;7.13;;
16133;SDS011;8172;45.018;5.972;2023-02-01T14:17:55;10.30;;;7.13;;
16133;SDS011;8172;45.018;5.972;2023-02-01T14:23:03;13.00;;;7.37;;
16133;SDS011;8172;45.018;5.972;2023-02-01T14:28:18;11.10;;;6.97;;
16133;SDS011;8172;45.018;5.972;2023-02-01T14:33:23;10.70;;;7.13;;
16133;SDS011;8172;45.018;5.972;2023-02-01T14:38:32;11.63;;;7.50;;
16133;SDS011;8172;45.018;5.972;2023-02-01T14:48:51;18.27;;;8.60;;
16133;SDS011;8172;45.018;5.972;2023-02-01T14:53:59;15.10;;;8.80;;
16133;SDS011;8172;45.018;5.972;2023-02-01T14:59:07;13.70;;;7.87;;
16133;SDS011;8172;45.018;5.972;2023-02-01T15:04:17;12.47;;;7.57;;
16133;SDS011;8172;45.018;5.972;2023-02-01T15:14:36;9.40;;;6.00;;
16133;SDS011;8172;45.018;5.972;2023-02-01T15:24:56;10.40;;;6.33;;
16133;SDS011;8172;45.018;5.972;2023-02-01T15:30:05;9.63;;;6.17;;
16133;SDS011;8172;45.018;5.972;2023-02-01T15:40:23;9.20;;;5.87;;
16133;SDS011;8172;45.018;5.972;2023-02-01T15:45:32;9.53;;;5.97;;
16133;SDS011;8172;45.018;5.972;2023-02-01T15:50:39;9.40;;;5.80;;
16133;SDS011;8172;45.018;5.972;2023-02-01T15:55:47;9.00;;;5.83;;
16133;SDS011;8172;45.018;5.972;2023-02-01T16:00:59;9.27;;;5.93;;
16133;SDS011;8172;45.018;5.972;2023-02-01T16:06:25;12.87;;;5.80;;
16133;SDS011;8172;45.018;5.972;2023-02-01T16:11:22;9.57;;;5.70;;
16133;SDS011;8172;45.018;5.972;2023-02-01T16:16:29;9.03;;;5.67;;
16133;SDS011;8172;45.018;5.972;2023-02-01T16:21:37;7.93;;;5.37;;
16133;SDS011;8172;45.018;5.972;2023-02-01T16:26:47;9.17;;;5.60;;
16133;SDS011;8172;45.018;5.972;2023-02-01T16:31:54;9.40;;;5.90;;
16133;SDS011;8172;45.018;5.972;2023-02-01T16:37:02;7.47;;;5.30;;
16133;SDS011;8172;45.018;5.972;2023-02-01T16:42:10;7.87;;;5.10;;
16133;SDS011;8172;45.018;5.972;2023-02-01T16:47:19;8.10;;;5.40;;
16133;SDS011;8172;45.018;5.972;2023-02-01T16:52:29;8.43;;;4.87;;
16133;SDS011;8172;45.018;5.972;2023-02-01T16:57:36;11.53;;;5.53;;
16133;SDS011;8172;45.018;5.972;2023-02-01T17:02:43;8.37;;;5.20;;
16133;SDS011;8172;45.018;5.972;2023-02-01T17:07:50;10.27;;;5.13;;
16133;SDS011;8172;45.018;5.972;2023-02-01T17:12:58;9.20;;;5.63;;
16133;SDS011;8172;45.018;5.972;2023-02-01T17:18:05;8.97;;;5.80;;
16133;SDS011;8172;45.018;5.972;2023-02-01T17:23:14;9.47;;;5.87;;
16133;SDS011;8172;45.018;5.972;2023-02-01T17:28:22;8.53;;;5.70;;
16133;SDS011;8172;45.018;5.972;2023-02-01T17:33:30;8.13;;;5.50;;
16133;SDS011;8172;45.018;5.972;2023-02-01T17:38:40;9.03;;;5.40;;
16133;SDS011;8172;45.018;5.972;2023-02-01T17:43:49;9.50;;;6.23;;
16133;SDS011;8172;45.018;5.972;2023-02-01T17:48:58;8.60;;;5.70;;
16133;SDS011;8172;45.018;5.972;2023-02-01T17:54:10;9.03;;;5.67;;
16133;SDS011;8172;45.018;5.972;2023-02-01T17:59:17;9.23;;;5.40;;
16133;SDS011;8172;45.018;5.972;2023-02-01T18:04:24;10.23;;;6.23;;
16133;SDS011;8172;45.018;5.972;2023-02-01T18:09:32;9.97;;;5.57;;
16133;SDS011;8172;45.018;5.972;2023-02-01T18:14:39;8.33;;;5.33;;
16133;SDS011;8172;45.018;5.972;2023-02-01T18:19:46;12.53;;;6.10;;
16133;SDS011;8172;45.018;5.972;2023-02-01T18:24:53;8.77;;;5.43;;
16133;SDS011;8172;45.018;5.972;2023-02-01T18:30:00;9.57;;;5.87;;
16133;SDS011;8172;45.018;5.972;2023-02-01T18:40:19;12.57;;;6.57;;
16133;SDS011;8172;45.018;5.972;2023-02-01T18:50:37;11.13;;;7.20;;
16133;SDS011;8172;45.018;5.972;2023-02-01T18:55:46;11.53;;;6.90;;
16133;SDS011;8172;45.018;5.972;2023-02-01T19:00:54;14.47;;;7.93;;
16133;SDS011;8172;45.018;5.972;2023-02-01T19:06:02;9.90;;;7.20;;
16133;SDS011;8172;45.018;5.972;2023-02-01T19:11:09;10.93;;;7.00;;
16133;SDS011;8172;45.018;5.972;2023-02-01T19:16:17;13.50;;;8.37;;
16133;SDS011;8172;45.018;5.972;2023-02-01T19:21:24;13.03;;;7.73;;
16133;SDS011;8172;45.018;5.972;2023-02-01T19:26:30;13.30;;;9.50;;
16133;SDS011;8172;45.018;5.972;2023-02-01T19:31:38;14.80;;;9.37;;
16133;SDS011;8172;45.018;5.972;2023-02-01T19:36:45;16.17;;;10.60;;
16133;SDS011;8172;45.018;5.972;2023-02-01T19:41:53;15.37;;;9.97;;
16133;SDS011;8172;45.018;5.972;2023-02-01T19:47:02;17.33;;;10.77;;
16133;SDS011;8172;45.018;5.972;2023-02-01T19:52:09;17.50;;;11.43;;
16133;SDS011;8172;45.018;5.972;2023-02-01T19:57:17;15.53;;;10.60;;
16133;SDS011;8172;45.018;5.972;2023-02-01T20:02:24;15.67;;;10.40;;
16133;SDS011;8172;45.018;5.972;2023-02-01T20:07:33;19.20;;;10.60;;
16133;SDS011;8172;45.018;5.972;2023-02-01T20:12:40;18.53;;;10.67;;
16133;SDS011;8172;45.018;5.972;2023-02-01T20:17:47;14.80;;;10.03;;
16133;SDS011;8172;45.018;5.972;2023-02-01T20:22:57;15.33;;;10.60;;
16133;SDS011;8172;45.018;5.972;2023-02-01T20:28:04;16.10;;;10.40;;
16133;SDS011;8172;45.018;5.972;2023-02-01T20:33:11;16.13;;;10.37;;
16133;SDS011;8172;45.018;5.972;2023-02-01T20:38:18;19.00;;;11.37;;
16133;SDS011;8172;45.018;5.972;2023-02-01T20:43:26;16.30;;;10.90;;
16133;SDS011;8172;45.018;5.972;2023-02-01T20:48:34;17.07;;;11.13;;
16133;SDS011;8172;45.018;5.972;2023-02-01T20:53:41;16.23;;;11.17;;
16133;SDS011;8172;45.018;5.972;2023-02-01T20:58:51;15.83;;;9.67;;
16133;SDS011;8172;45.018;5.972;2023-02-01T21:03:58;14.93;;;10.07;;
16133;SDS011;8172;45.018;5.972;2023-02-01T21:09:05;13.93;;;9.80;;
16133;SDS011;8172;45.018;5.972;2023-02-01T21:14:12;14.30;;;10.37;;
16133;SDS011;8172;45.018;5.972;2023-02-01T21:19:19;19.80;;;11.13;;
16133;SDS011;8172;45.018;5.972;2023-02-01T21:24:29;17.53;;;10.77;;
16133;SDS011;8172;45.018;5.972;2023-02-01T21:29:36;17.77;;;10.50;;
16133;SDS011;8172;45.018;5.972;2023-02-01T21:34:44;19.87;;;12.53;;
16133;SDS011;8172;45.018;5.972;2023-02-01T21:39:51;19.23;;;11.53;;
16133;SDS011;8172;45.018;5.972;2023-02-01T21:45:00;18.53;;;10.80;;
16133;SDS011;8172;45.018;5.972;2023-02-01T21:50:12;17.50;;;11.03;;
16133;SDS011;8172;45.018;5.972;2023-02-01T21:55:19;16.10;;;11.13;;
16133;SDS011;8172;45.018;5.972;2023-02-01T22:00:27;13.23;;;9.30;;
16133;SDS011;8172;45.018;5.972;2023-02-01T22:05:34;14.90;;;9.67;;
16133;SDS011;8172;45.018;5.972;2023-02-01T22:10:41;14.93;;;10.20;;
16133;SDS011;8172;45.018;5.972;2023-02-01T22:15:49;15.43;;;10.40;;
16133;SDS011;8172;45.018;5.972;2023-02-01T22:20:57;14.97;;;10.13;;
16133;SDS011;8172;45.018;5.972;2023-02-01T22:26:05;16.07;;;10.07;;
16133;SDS011;8172;45.018;5.972;2023-02-01T22:31:14;15.87;;;9.20;;
16133;SDS011;8172;45.018;5.972;2023-02-01T22:36:22;13.97;;;9.17;;
16133;SDS011;8172;45.018;5.972;2023-02-01T22:41:29;14.10;;;9.17;;
16133;SDS011;8172;45.018;5.972;2023-02-01T22:46:39;13.00;;;9.00;;
16133;SDS011;8172;45.018;5.972;2023-02-01T22:51:46;15.00;;;9.60;;
16133;SDS011;8172;45.018;5.972;2023-02-01T22:56:54;13.27;;;8.30;;
16133;SDS011;8172;45.018;5.972;2023-02-01T23:02:01;12.50;;;8.53;;
16133;SDS011;8172;45.018;5.972;2023-02-01T23:07:08;12.97;;;8.40;;
16133;SDS011;8172;45.018;5.972;2023-02-01T23:12:15;12.03;;;8.10;;
16133;SDS011;8172;45.018;5.972;2023-02-01T23:17:22;15.90;;;9.27;;
16133;SDS011;8172;45.018;5.972;2023-02-01T23:22:30;13.07;;;8.63;;
16133;SDS011;8172;45.018;5.972;2023-02-01T23:27:37;12.53;;;8.63;;
16133;SDS011;8172;45.018;5.972;2023-02-01T23:32:44;13.80;;;8.17;;
16133;SDS011;8172;45.018;5.972;2023-02-01T23:37:51;12.87;;;8.67;;
16133;SDS011;8172;45.018;5.972;2023-02-01T23:42:58;13.33;;;8.80;;
16133;SDS011;8172;45.018;5.972;2023-02-01T23:48:08;14.50;;;9.37;;
16133;SDS011;8172;45.018;5.972;2023-02-01T23:53:15;14.33;;;9.43;;
16133;SDS011;8172;45.018;5.972;2023-02-01T23:58:22;15.90;;;9.53;;
